Sacramento, California
Current Conditions -  °F | °C
As of 8:53 AM on Monday 24 Nov 2014 (Local Time) from KSAC Reporting Station
Clear Clear  
Wind Chill: 46°   Ceiling: Unl
Heat Index: 48°   Visibility: 10mi
Dew Point: 43°   Wind: 5mph
Humidity: 83%   Direction: 350°N
Pressure: 30.41"   Gusts: NA
Location:  38.58°N, 121.49°W
Report Text: KSAC 241653Z 35004KT 10SM CLR 09/06 A3041 RMK AO2 SLP296 T00890061
Loading
Personal Weather Stations






























Interactive Weather Map New forecast layout! Learn more

10-Day Weather Forecast

Advertisements
Track Severe Weather on mobile